Soleil Weather Down

Nearby METAR Reports

 

KCNI - Canton/Cherokee, Georgia, USA
Distance from station: ENE 6mi, 10km
Updated: Wed, 28-Feb-2024 12:15am EST
Overcast
Overcast
 Wind from S
Wind: S 9 mph , 15 km/h
Temperature: 66°F , 19°C
Dew Point: 57°F , 14°C
Humidity: 73%
Barometer: 29.90 inHg , 1012.5 hPa
Clouds: Overcast
Visibility: 10 miles , 16 km
Cloud details: Overcast 2800 ft
2024/02/28 05:15 KCNI 280515Z AUTO 19008KT 140V210 10SM OVC028 19/14 A2990 RMK AO2 T01880138
KRYY - Marietta Mccolum, Georgia, USA
Distance from station: SSW 18mi, 29km
Updated: Tue, 27-Feb-2024 11:50pm EST
Overcast
Overcast
 Wind from S
Wind: S 12 mph , 19 km/h, Gust: 21 mph , 33 km/h
Temperature: 66°F , 19°C
Dew Point: 57°F , 14°C
Humidity: 73%
Barometer: 29.90 inHg , 1012.5 hPa
Clouds: Overcast
Visibility: 10 miles , 16 km
Cloud details: Overcast 3000 ft
2024/02/28 04:50 KRYY 280450Z AUTO 19010G18KT 10SM OVC030 19/14 A2990 RMK AO2 SLP116 T01940139 $
KVPC - Cartersville, Georgia, USA
Distance from station: WSW 22mi, 35km
Updated: Wed, 28-Feb-2024 12:15am EST
Overcast
Overcast
 Wind from varies
Wind: varies 6 mph , 9 km/h, Gust: 17 mph , 28 km/h
Temperature: 68°F , 20°C
Dew Point: 57°F , 14°C
Humidity: 69%
Barometer: 29.89 inHg , 1012.2 hPa
Clouds: Overcast
Visibility: 10 miles , 16 km
Cloud details: Overcast 3400 ft
2024/02/28 05:15 KVPC 280515Z AUTO VRB05G15KT 10SM OVC034 20/14 A2989 RMK AO2
 
KMGE - Dobbins Afb/Mari, Georgia, USA
Distance from station: S 24mi, 39km
Updated: Tue, 27-Feb-2024 11:55pm EST
Mostly cloudy
Mostly cloudy
 Wind from S
Wind: S 13 mph , 20 km/h, Gust: 18 mph , 30 km/h
Temperature: 68°F , 20°C
Dew Point: 57°F , 14°C
Humidity: 69%
Barometer: 29.87 inHg , 1011.5 hPa
Clouds: Mostly cloudy
Visibility: 10 miles , 16 km
Cloud details: Mostly cloudy 3000 ft
2024/02/28 04:55 KMGE 280455Z AUTO 19011G16KT 10SM BKN030 20/14 A2987 RMK AO2 SLP109 T01980137 402310140
KPDK - Peachtree/Dekalb, Georgia, USA
Distance from station: SSE 29mi, 47km
Updated: Tue, 27-Feb-2024 11:53pm EST
Mostly cloudy
Mostly cloudy
 Wind from S
Wind: S 17 mph , 28 km/h, Gust: 25 mph , 41 km/h
Temperature: 66°F , 19°C
Dew Point: 55°F , 13°C
Humidity: 68%
Barometer: 29.90 inHg , 1012.5 hPa
Clouds: Mostly cloudy
Visibility: 10 miles , 16 km
Cloud details: Mostly cloudy 3500 ft
2024/02/28 04:53 KPDK 280453Z AUTO 19015G22KT 10SM BKN035 19/13 A2990 RMK AO2 SLP117 T01890133 402170133
KFTY - Atlanta/Fulton, Georgia, USA
Distance from station: S 34mi, 54km
Updated: Tue, 27-Feb-2024 11:53pm EST
Overcast
Overcast
 Wind from SSW
Wind: SSW 13 mph , 20 km/h, Gust: 23 mph , 37 km/h
Temperature: 68°F , 20°C
Dew Point: 55°F , 13°C
Humidity: 64%
Barometer: 29.90 inHg , 1012.5 hPa
Clouds: Overcast
Visibility: 10 miles , 16 km
Cloud details: Overcast 3500 ft
2024/02/28 04:53 KFTY 280453Z 20011G20KT 10SM OVC035 20/13 A2990 RMK AO2 SLP117 T02000133 402330144
 
KPUJ - Atlanta/Paulding, Georgia, USA
Distance from station: SW 34mi, 55km
Updated: Wed, 28-Feb-2024 12:15am EST
Overcast
Overcast
 Wind from SSW
Wind: SSW 7 mph , 11 km/h, Gust: 18 mph , 30 km/h
Temperature: 64°F , 18°C
Dew Point: 55°F , 13°C
Humidity: 73%
Barometer: 29.90 inHg , 1012.5 hPa
Clouds: Overcast
Visibility: 10 miles , 16 km
Cloud details: Overcast 2500 ft
2024/02/28 05:15 KPUJ 280515Z AUTO 20006G16KT 10SM OVC025 18/13 A2990 RMK AO2
KDNN - Dalton, Georgia, USA
Distance from station: NW 37mi, 59km
Updated: Wed, 28-Feb-2024 12:15am EST
Overcast
Overcast
 Wind from SSE
Wind: SSE 8 mph , 13 km/h
Temperature: 70°F , 21°C
Dew Point: 59°F , 15°C
Humidity: 69%
Barometer: 29.83 inHg , 1010.2 hPa
Clouds: Overcast
Visibility: 10 miles , 16 km
Cloud details: Overcast 3600 ft
2024/02/28 05:15 KDNN 280515Z AUTO 16007KT 120V200 10SM OVC036 21/15 A2983 RMK AO2 T02070148
KLZU - Lawrenceville, Georgia, USA
Distance from station: ESE 37mi, 59km
Updated: Tue, 27-Feb-2024 11:56pm EST
Mostly cloudy
Mostly cloudy
 Wind from S
Wind: S 18 mph , 30 km/h, Gust: 24 mph , 39 km/h
Temperature: 66°F , 19°C
Dew Point: 55°F , 13°C
Humidity: 68%
Barometer: 29.92 inHg , 1013.2 hPa
Clouds: Mostly cloudy
Visibility: 10 miles , 16 km
Cloud details: Mostly cloudy 3200 ft
2024/02/28 04:56 KLZU 280456Z AUTO 19016G21KT 10SM BKN032 19/13 A2992 RMK AO2 SLP135 T01890133
 
KRMG - Rome, Georgia, USA
Distance from station: W 38mi, 61km
Updated: Tue, 27-Feb-2024 11:53pm EST
Partly cloudy
Partly cloudy
 Wind from S
Wind: S 15 mph , 24 km/h, Gust: 25 mph , 41 km/h
Temperature: 70°F , 21°C
Dew Point: 55°F , 13°C
Humidity: 60%
Barometer: 29.83 inHg , 1010.2 hPa
Clouds: Partly cloudy
Visibility: 10 miles , 16 km
Cloud details: Partly cloudy 3700 ft
2024/02/28 04:53 KRMG 280453Z AUTO 19013G22KT 10SM SCT037 21/13 A2983 RMK AO2 SLP093 T02110133 402440106
KGVL - Gainesville, Georgia, USA
Distance from station: E 39mi, 62km
Updated: Tue, 27-Feb-2024 11:53pm EST
Overcast
Overcast
 Wind from S
Wind: S 8 mph , 13 km/h
Temperature: 66°F , 19°C
Dew Point: 55°F , 13°C
Humidity: 68%
Barometer: 29.93 inHg , 1013.5 hPa
Clouds: Overcast
Visibility: 10 miles , 16 km
Cloud details: Overcast 3200 ft
2024/02/28 04:53 KGVL 280453Z AUTO 19007KT 10SM OVC032 19/13 A2993 RMK AO2 SLP124 T01890133 402060122
KATL - Atlanta, Georgia, USA
Distance from station: S 44mi, 71km
Updated: Tue, 27-Feb-2024 11:52pm EST
Mostly cloudy
Mostly cloudy
 Wind from SSW
Wind: SSW 15 mph , 24 km/h, Gust: 23 mph , 37 km/h
Temperature: 66°F , 19°C
Dew Point: 55°F , 13°C
Humidity: 68%
Barometer: 29.92 inHg , 1013.2 hPa
Clouds: Mostly cloudy
Visibility: 10 miles , 16 km
Cloud details: Mostly cloudy 3300 ft
Mostly cloudy 20000 ft
2024/02/28 04:52 KATL 280452Z 20013G20KT 10SM BKN033 BKN200 19/13 A2992 RMK AO2 PK WND 21026/0420 SLP124 T01940133 402280133